Time;durP1;ratioP1;P1;durP2;ratioP2;P2;SDS_P1;SDS_P2;PMS_P1;PMS_P2;Temp;Humidity;BMP_temperature;BMP_pressure;BME280_temperature;BME280_humidity;BME280_pressure;Samples;Min_cycle;Max_cycle;Signal;HPM_P1;HPM_P2
2021/07/12 00:02:19;;;;;;;5.30;4.80;;;15.40;99.90;;;;;;4934355;29;20228;-52
2021/07/12 00:04:47;;;;;;;5.75;4.85;;;15.40;99.90;;;;;;4934058;29;20215;-50
2021/07/12 00:07:15;;;;;;;5.78;5.28;;;15.30;99.90;;;;;;4934343;29;20308;-48
2021/07/12 00:09:43;;;;;;;5.22;4.65;;;15.30;99.90;;;;;;4934077;29;20673;-47
2021/07/12 00:12:12;;;;;;;6.15;5.65;;;15.30;99.90;;;;;;4933963;29;20232;-49
2021/07/12 00:14:40;;;;;;;5.45;5.05;;;15.30;99.90;;;;;;4937020;29;20216;-50
2021/07/12 00:17:08;;;;;;;5.53;5.00;;;15.20;99.90;;;;;;4937559;29;20238;-48
2021/07/12 00:19:36;;;;;;;5.32;4.93;;;15.20;99.90;;;;;;4937890;29;20212;-49
2021/07/12 00:22:04;;;;;;;5.88;5.15;;;15.20;99.90;;;;;;4937767;29;20208;-50
2021/07/12 00:24:32;;;;;;;5.03;4.60;;;15.20;99.90;;;;;;4937567;29;20821;-50
2021/07/12 00:27:00;;;;;;;6.05;4.88;;;15.10;99.90;;;;;;4937862;29;20224;-49
2021/07/12 00:29:30;;;;;;;6.68;5.35;;;15.20;99.90;;;;;;4937690;29;20295;-51
2021/07/12 00:31:57;;;;;;;5.45;4.30;;;15.20;99.90;;;;;;4937611;29;20722;-46
2021/07/12 00:34:26;;;;;;;6.13;5.45;;;15.20;99.90;;;;;;4937429;29;20212;-48
2021/07/12 00:36:53;;;;;;;5.55;5.05;;;15.20;99.90;;;;;;4937482;29;20235;-46
2021/07/12 00:39:22;;;;;;;5.15;4.75;;;15.20;99.90;;;;;;4937122;29;20247;-51
2021/07/12 00:41:50;;;;;;;11.30;5.10;;;15.20;99.90;;;;;;4937365;29;20216;-50
2021/07/12 00:44:18;;;;;;;5.40;4.90;;;15.20;99.90;;;;;;4937351;29;20211;-50
2021/07/12 00:46:47;;;;;;;5.15;4.70;;;15.10;99.90;;;;;;4937283;29;20207;-48
2021/07/12 00:49:15;;;;;;;5.45;4.95;;;15.10;99.90;;;;;;4937328;29;20307;-46
2021/07/12 00:51:43;;;;;;;5.68;5.18;;;15.10;99.90;;;;;;4937030;29;20239;-46
2021/07/12 00:54:11;;;;;;;5.45;5.03;;;15.10;99.90;;;;;;4937616;29;20319;-51
2021/07/12 00:56:39;;;;;;;4.93;4.53;;;15.10;99.90;;;;;;4937442;29;20218;-51
2021/07/12 00:59:08;;;;;;;5.57;5.05;;;15.10;99.90;;;;;;4936977;29;20247;-47
2021/07/12 01:01:36;;;;;;;6.22;5.72;;;15.10;99.90;;;;;;4937166;29;20668;-49
2021/07/12 01:04:06;;;;;;;7.65;6.13;;;15.10;99.90;;;;;;4936853;29;20223;-49
2021/07/12 01:06:34;;;;;;;6.32;5.78;;;15.10;99.90;;;;;;4936647;29;20271;-47
2021/07/12 01:09:02;;;;;;;6.15;5.55;;;15.00;99.90;;;;;;4936845;29;20334;-49
2021/07/12 01:11:37;;;;;;;6.03;5.53;;;15.00;99.90;;;;;;4936851;29;20327;-47
2021/07/12 01:14:13;;;;;;;6.13;5.63;;;15.00;99.90;;;;;;4936657;29;20294;-49
2021/07/12 01:16:54;;;;;;;6.78;6.07;;;14.90;99.90;;;;;;4936955;29;20742;-47
2021/07/12 01:19:54;;;;;;;6.50;5.97;;;14.90;99.90;;;;;;4936880;29;20234;-47
2021/07/12 01:22:58;;;;;;;5.95;5.30;;;14.80;99.90;;;;;;4936468;29;20380;-51
2021/07/12 01:26:15;;;;;;;6.43;5.38;;;14.70;99.90;;;;;;4896276;29;20221;-48
2021/07/12 01:29:22;;;;;;;5.90;5.45;;;14.60;99.90;;;;;;4936436;29;20249;-49
2021/07/12 01:32:26;;;;;;;6.15;5.65;;;14.60;99.90;;;;;;4896645;29;20324;-48
2021/07/12 01:35:03;;;;;;;6.40;5.80;;;14.70;99.90;;;;;;4936292;29;20306;-50
2021/07/12 01:37:40;;;;;;;7.18;6.47;;;14.70;99.90;;;;;;4936790;29;20302;-50
2021/07/12 01:40:14;;;;;;;6.85;5.68;;;14.70;99.90;;;;;;4936650;29;20226;-50
2021/07/12 01:42:47;;;;;;;6.40;5.90;;;14.70;99.90;;;;;;4936200;29;20582;-50
2021/07/12 01:45:17;;;;;;;7.28;6.45;;;14.70;99.90;;;;;;4936253;29;20212;-46
2021/07/12 01:47:59;;;;;;;6.28;5.68;;;14.70;99.90;;;;;;4936138;29;20216;-49
2021/07/12 01:50:34;;;;;;;6.72;6.22;;;14.70;99.90;;;;;;4936189;29;20226;-51
2021/07/12 01:53:10;;;;;;;5.95;5.35;;;14.70;99.90;;;;;;4936333;29;20238;-47
2021/07/12 01:55:48;;;;;;;6.57;5.90;;;14.70;99.90;;;;;;4936108;29;20563;-52
2021/07/12 01:58:24;;;;;;;6.85;6.05;;;14.70;99.90;;;;;;4935979;29;20223;-51
2021/07/12 02:00:53;;;;;;;6.63;6.03;;;14.70;99.90;;;;;;4935996;29;20222;-49
2021/07/12 02:03:26;;;;;;;5.95;5.35;;;14.70;99.90;;;;;;4940622;29;20215;-48
2021/07/12 02:06:00;;;;;;;6.50;5.95;;;14.70;99.90;;;;;;4938859;29;20680;-51
2021/07/12 02:08:33;;;;;;;5.55;5.13;;;14.70;99.90;;;;;;4936591;29;20339;-52
2021/07/12 02:11:02;;;;;;;5.57;5.10;;;14.70;99.90;;;;;;4936402;29;20235;-50
2021/07/12 02:13:31;;;;;;;6.50;5.90;;;14.70;99.90;;;;;;4935612;29;20232;-50
2021/07/12 02:16:02;;;;;;;5.63;5.10;;;14.60;99.90;;;;;;4935794;29;20234;-50
2021/07/12 02:18:33;;;;;;;6.70;5.68;;;14.60;99.90;;;;;;4935554;29;20610;-52
2021/07/12 02:21:06;;;;;;;6.28;5.78;;;14.60;99.90;;;;;;4935548;29;20215;-53
2021/07/12 02:23:36;;;;;;;8.48;5.57;;;14.60;99.90;;;;;;4935389;29;20231;-49
2021/07/12 02:26:06;;;;;;;6.63;6.13;;;14.60;99.90;;;;;;4935772;29;20234;-51
2021/07/12 02:28:34;;;;;;;6.80;6.20;;;14.60;99.90;;;;;;4935388;29;20653;-48
2021/07/12 02:31:03;;;;;;;7.97;6.28;;;14.50;99.90;;;;;;4935356;29;20247;-51
2021/07/12 02:33:33;;;;;;;6.53;6.00;;;14.50;99.90;;;;;;4935326;29;20603;-51
2021/07/12 02:36:02;;;;;;;6.93;6.32;;;14.50;99.90;;;;;;4934578;29;20212;-46
2021/07/12 02:38:31;;;;;;;6.50;5.93;;;14.50;99.90;;;;;;4935301;29;20231;-51
2021/07/12 02:40:59;;;;;;;6.63;5.38;;;14.50;99.90;;;;;;4935310;29;20585;-51
2021/07/12 02:43:28;;;;;;;7.63;6.85;;;14.50;99.90;;;;;;4935428;29;20243;-53
2021/07/12 02:45:56;;;;;;;5.85;5.35;;;14.40;99.90;;;;;;4935172;29;20220;-48
2021/07/12 02:48:24;;;;;;;6.57;5.97;;;14.40;99.90;;;;;;4934971;29;20211;-48
2021/07/12 02:50:54;;;;;;;6.18;5.47;;;14.40;99.90;;;;;;4934954;29;20212;-56
2021/07/12 02:53:27;;;;;;;5.55;5.05;;;14.40;99.90;;;;;;4935119;29;20327;-47
2021/07/12 02:55:55;;;;;;;7.70;5.72;;;14.30;99.90;;;;;;4935197;29;20227;-48
2021/07/12 02:58:23;;;;;;;6.60;6.03;;;14.30;99.90;;;;;;4934991;29;20299;-48
2021/07/12 03:00:51;;;;;;;6.78;6.07;;;14.30;99.90;;;;;;4935204;29;20299;-49
2021/07/12 03:03:19;;;;;;;6.13;5.53;;;14.30;99.90;;;;;;4935141;29;20212;-51
2021/07/12 03:05:52;;;;;;;6.43;5.85;;;14.30;99.90;;;;;;4935108;29;20307;-47
2021/07/12 03:08:27;;;;;;;6.20;5.60;;;14.30;99.90;;;;;;4934886;29;20334;-48
2021/07/12 03:10:59;;;;;;;5.55;4.97;;;14.30;99.90;;;;;;4934914;29;20247;-46
2021/07/12 03:13:39;;;;;;;6.55;5.68;;;14.30;99.90;;;;;;4934789;29;20783;-50
2021/07/12 03:16:08;;;;;;;5.45;4.95;;;14.30;99.90;;;;;;4934827;29;20263;-50
2021/07/12 03:18:45;;;;;;;5.97;5.47;;;14.30;99.90;;;;;;4934945;29;20216;-48
2021/07/12 03:21:15;;;;;;;5.07;4.63;;;14.30;99.90;;;;;;4934755;29;20215;-51
2021/07/12 03:23:45;;;;;;;6.82;5.47;;;14.20;99.90;;;;;;4934744;29;20247;-54
2021/07/12 03:26:15;;;;;;;5.60;5.13;;;14.20;99.90;;;;;;4934858;29;20311;-51
2021/07/12 03:28:44;;;;;;;5.75;5.25;;;14.10;99.90;;;;;;4934529;29;20657;-51
2021/07/12 03:31:13;;;;;;;6.43;5.80;;;14.10;99.90;;;;;;4934496;29;20211;-52
2021/07/12 03:33:42;;;;;;;12.40;6.50;;;14.10;99.90;;;;;;4934374;29;20228;-51
2021/07/12 03:36:11;;;;;;;6.30;5.80;;;14.00;99.90;;;;;;4934642;29;20296;-48
2021/07/12 03:38:40;;;;;;;5.78;5.28;;;14.10;99.90;;;;;;4934590;29;20616;-51
2021/07/12 03:41:09;;;;;;;6.35;5.80;;;14.10;99.90;;;;;;4934702;29;20238;-48
2021/07/12 03:43:40;;;;;;;6.85;6.25;;;14.10;99.90;;;;;;4934528;29;20583;-49
2021/07/12 03:46:09;;;;;;;6.35;5.82;;;14.10;99.90;;;;;;4934717;29;20216;-53
2021/07/12 03:48:40;;;;;;;6.50;5.47;;;14.10;99.90;;;;;;4937444;29;20218;-54
2021/07/12 03:51:10;;;;;;;7.45;6.00;;;14.10;99.90;;;;;;4938201;29;20668;-53
2021/07/12 03:53:38;;;;;;;6.82;6.22;;;14.10;99.90;;;;;;4938300;29;20236;-49
2021/07/12 03:56:06;;;;;;;6.03;5.50;;;14.10;99.90;;;;;;4938318;29;20226;-50
2021/07/12 03:58:36;;;;;;;5.93;5.43;;;14.20;99.90;;;;;;4938275;29;20248;-54
2021/07/12 04:01:04;;;;;;;6.80;6.20;;;14.20;99.90;;;;;;4937951;29;20264;-53
2021/07/12 04:03:32;;;;;;;7.88;6.65;;;14.20;99.90;;;;;;4937675;29;20204;-50
2021/07/12 04:06:00;;;;;;;7.60;7.00;;;14.20;99.90;;;;;;4937852;29;20598;-48
2021/07/12 04:08:28;;;;;;;7.53;6.50;;;14.30;99.90;;;;;;4937650;29;20267;-47
2021/07/12 04:10:56;;;;;;;5.95;5.45;;;14.30;99.90;;;;;;4937657;29;20218;-52
2021/07/12 04:13:24;;;;;;;6.25;5.70;;;14.30;99.90;;;;;;4937802;29;20231;-47
2021/07/12 04:15:53;;;;;;;6.60;5.88;;;14.40;99.90;;;;;;4937977;29;20271;-47
2021/07/12 04:18:21;;;;;;;6.78;5.63;;;14.50;99.90;;;;;;4938008;29;20314;-49
2021/07/12 04:20:49;;;;;;;9.38;6.53;;;14.60;99.90;;;;;;4937652;29;20212;-49
2021/07/12 04:23:17;;;;;;;6.72;6.13;;;14.60;99.90;;;;;;4937500;29;20578;-47
2021/07/12 04:25:46;;;;;;;7.18;5.88;;;14.70;99.90;;;;;;4937583;29;20222;-50
2021/07/12 04:28:14;;;;;;;6.32;5.82;;;14.80;99.90;;;;;;4937422;29;20307;-51
2021/07/12 04:30:42;;;;;;;6.00;5.50;;;14.80;99.90;;;;;;4937511;29;20331;-53
2021/07/12 04:33:11;;;;;;;6.45;5.85;;;14.90;99.90;;;;;;4937777;29;20236;-49
2021/07/12 04:35:39;;;;;;;7.93;6.57;;;15.00;99.90;;;;;;4937652;29;20215;-53
2021/07/12 04:38:07;;;;;;;10.77;6.95;;;15.10;99.90;;;;;;4937442;29;20676;-52
2021/07/12 04:40:35;;;;;;;7.15;6.55;;;15.10;99.90;;;;;;4937487;29;20307;-53
2021/07/12 04:43:03;;;;;;;7.93;7.18;;;15.20;99.90;;;;;;4937401;29;20209;-49
2021/07/12 04:45:31;;;;;;;9.10;7.43;;;15.20;99.90;;;;;;4937596;29;20299;-49
2021/07/12 04:47:59;;;;;;;9.30;8.13;;;15.20;99.90;;;;;;4937546;29;20559;-53
2021/07/12 04:50:29;;;;;;;8.75;7.95;;;15.30;99.90;;;;;;4937423;29;20219;-51
2021/07/12 04:52:57;;;;;;;9.45;7.70;;;15.30;99.90;;;;;;4937395;29;20306;-52
2021/07/12 04:55:25;;;;;;;16.50;8.75;;;15.40;99.90;;;;;;4937297;29;20315;-53
2021/07/12 04:57:55;;;;;;;16.50;7.15;;;15.40;99.90;;;;;;4937195;29;20226;-49
2021/07/12 05:00:23;;;;;;;19.85;7.47;;;15.40;99.90;;;;;;4936353;29;20212;-50
2021/07/12 05:02:51;;;;;;;10.68;6.97;;;15.40;99.90;;;;;;4937254;29;20617;-51
2021/07/12 05:05:19;;;;;;;27.50;8.23;;;15.50;99.90;;;;;;4936948;29;20315;-51
2021/07/12 05:07:48;;;;;;;13.98;7.63;;;15.50;99.90;;;;;;4936659;29;20219;-50
2021/07/12 05:10:17;;;;;;;25.17;8.10;;;15.60;99.90;;;;;;4937063;29;20215;-52
2021/07/12 05:12:45;;;;;;;16.45;8.15;;;15.60;99.90;;;;;;4936883;29;20216;-49
2021/07/12 05:15:13;;;;;;;22.35;7.65;;;15.60;99.90;;;;;;4936663;29;20228;-48
2021/07/12 05:17:42;;;;;;;11.48;8.13;;;15.70;99.90;;;;;;4936588;29;20207;-49
2021/07/12 05:20:12;;;;;;;21.45;7.90;;;15.70;99.90;;;;;;4936821;29;20339;-48
2021/07/12 05:22:40;;;;;;;10.00;7.70;;;15.80;99.90;;;;;;4936450;29;20676;-46
2021/07/12 05:25:10;;;;;;;16.27;7.45;;;15.90;99.90;;;;;;4936561;29;20204;-48
2021/07/12 05:27:38;;;;;;;12.23;7.25;;;16.00;99.90;;;;;;4936559;29;20299;-51
2021/07/12 05:30:07;;;;;;;12.95;7.03;;;16.00;99.90;;;;;;4936506;29;20216;-50
2021/07/12 05:32:36;;;;;;;9.35;6.10;;;16.10;99.90;;;;;;4936607;29;20262;-46
2021/07/12 05:35:05;;;;;;;6.15;5.55;;;16.10;99.90;;;;;;4936237;29;20793;-53
2021/07/12 05:37:33;;;;;;;6.60;6.07;;;16.20;99.90;;;;;;4936653;29;20248;-49
2021/07/12 05:40:01;;;;;;;7.88;6.53;;;16.20;99.90;;;;;;4936409;29;20252;-51
2021/07/12 05:42:31;;;;;;;7.95;6.05;;;16.20;99.90;;;;;;4936091;29;20219;-51
2021/07/12 05:44:59;;;;;;;7.90;6.97;;;16.20;99.90;;;;;;4936417;29;20322;-48
2021/07/12 05:47:26;;;;;;;9.23;7.00;;;16.20;99.90;;;;;;4936000;29;20208;-52
2021/07/12 05:49:55;;;;;;;10.43;6.80;;;16.30;99.90;;;;;;4936393;29;20215;-51
2021/07/12 05:52:22;;;;;;;12.10;6.93;;;16.40;99.90;;;;;;4935999;29;20227;-48
2021/07/12 05:54:50;;;;;;;8.40;7.35;;;16.40;99.90;;;;;;4936002;29;20326;-49
2021/07/12 05:57:18;;;;;;;6.63;6.03;;;16.50;99.90;;;;;;4935799;29;20310;-46
2021/07/12 05:59:47;;;;;;;6.93;5.90;;;16.60;99.90;;;;;;4935803;29;20320;-51
2021/07/12 06:02:15;;;;;;;7.32;6.72;;;16.80;99.90;;;;;;4935749;29;20216;-47
2021/07/12 06:04:44;;;;;;;7.15;6.55;;;16.80;99.90;;;;;;4935934;29;20218;-48
2021/07/12 06:07:12;;;;;;;7.20;6.50;;;16.90;99.90;;;;;;4935578;29;20271;-51
2021/07/12 06:09:40;;;;;;;7.30;6.70;;;17.00;99.90;;;;;;4935593;29;20246;-52
2021/07/12 06:12:08;;;;;;;8.75;7.55;;;17.10;99.90;;;;;;4934749;29;20637;-51
2021/07/12 06:14:36;;;;;;;7.50;6.90;;;17.20;99.90;;;;;;4935553;29;20240;-50
2021/07/12 06:17:06;;;;;;;8.57;7.78;;;17.40;99.90;;;;;;4935620;29;20662;-48
2021/07/12 06:19:34;;;;;;;8.63;7.93;;;17.50;99.90;;;;;;4935397;29;20637;-46
2021/07/12 06:22:02;;;;;;;8.98;8.27;;;17.60;99.90;;;;;;4935704;29;20267;-46
2021/07/12 06:24:30;;;;;;;7.47;6.78;;;17.70;99.90;;;;;;4935601;29;20287;-48
2021/07/12 06:26:58;;;;;;;8.18;7.55;;;17.70;99.90;;;;;;4935555;29;20208;-48
2021/07/12 06:29:26;;;;;;;8.88;8.07;;;17.70;99.90;;;;;;4935463;29;20211;-50
2021/07/12 06:31:55;;;;;;;7.80;7.20;;;17.80;99.90;;;;;;4935643;29;20682;-50
2021/07/12 06:34:26;;;;;;;10.27;8.57;;;17.90;99.90;;;;;;4935665;29;20740;-46
2021/07/12 06:36:54;;;;;;;10.02;8.18;;;17.90;99.90;;;;;;4935473;29;20231;-50
2021/07/12 06:39:22;;;;;;;18.17;9.73;;;17.90;99.90;;;;;;4935526;29;20235;-48
2021/07/12 06:41:49;;;;;;;8.23;7.45;;;17.90;99.90;;;;;;4935366;29;20640;-50
2021/07/12 06:44:17;;;;;;;7.82;7.20;;;18.00;99.90;;;;;;4935521;29;20208;-49
2021/07/12 06:46:45;;;;;;;8.13;7.53;;;18.10;99.90;;;;;;4935470;29;20216;-51
2021/07/12 06:49:13;;;;;;;7.78;7.07;;;18.10;99.90;;;;;;4935349;29;20235;-48
2021/07/12 06:51:43;;;;;;;8.02;7.40;;;18.20;99.90;;;;;;4935206;29;20303;-51
2021/07/12 06:54:11;;;;;;;7.45;6.82;;;18.30;99.90;;;;;;4935046;29;20307;-49
2021/07/12 06:56:39;;;;;;;7.20;6.65;;;18.40;99.90;;;;;;4935416;29;20307;-48
2021/07/12 06:59:07;;;;;;;8.10;7.30;;;18.50;99.90;;;;;;4935231;29;20307;-49
2021/07/12 07:01:35;;;;;;;7.50;6.80;;;18.50;99.90;;;;;;4935239;29;20306;-47
2021/07/12 07:04:03;;;;;;;7.13;6.55;;;18.60;99.90;;;;;;4935155;29;20707;-50
2021/07/12 07:06:31;;;;;;;5.90;5.50;;;18.60;99.90;;;;;;4935090;29;20295;-47
2021/07/12 07:09:00;;;;;;;7.78;5.97;;;18.70;99.90;;;;;;4934850;29;20715;-47
2021/07/12 07:11:31;;;;;;;6.70;6.18;;;18.70;99.90;;;;;;4935278;29;20302;-55
2021/07/12 07:13:59;;;;;;;7.93;7.13;;;18.70;99.90;;;;;;4934635;29;20750;-48
2021/07/12 07:16:27;;;;;;;7.15;6.55;;;18.50;99.90;;;;;;4934746;29;20270;-48
2021/07/12 07:18:55;;;;;;;8.65;6.25;;;18.50;99.90;;;;;;4934796;29;20627;-51
2021/07/12 07:21:23;;;;;;;6.75;6.25;;;18.60;99.90;;;;;;4934726;29;20238;-50
2021/07/12 07:23:52;;;;;;;7.13;6.53;;;18.70;99.90;;;;;;4934154;29;20212;-48
2021/07/12 07:26:21;;;;;;;6.47;5.97;;;18.70;99.90;;;;;;4935106;29;20287;-51
2021/07/12 07:28:49;;;;;;;6.72;6.22;;;18.80;99.90;;;;;;4934692;29;20688;-51
2021/07/12 07:31:17;;;;;;;5.55;5.15;;;18.80;99.90;;;;;;4934687;29;20243;-50
2021/07/12 07:33:45;;;;;;;4.53;4.22;;;19.10;99.90;;;;;;4934541;29;20710;-54
2021/07/12 07:36:13;;;;;;;4.80;4.35;;;19.30;99.90;;;;;;4934898;29;20240;-50
2021/07/12 07:38:41;;;;;;;5.03;4.63;;;19.50;99.90;;;;;;4934550;29;20310;-52
2021/07/12 07:41:09;;;;;;;4.78;4.45;;;19.70;99.90;;;;;;4934568;29;20311;-48
2021/07/12 07:43:40;;;;;;;5.72;4.85;;;19.80;99.90;;;;;;4935659;29;20216;-50
2021/07/12 07:46:08;;;;;;;4.22;3.83;;;19.90;99.90;;;;;;4934691;29;20298;-48
2021/07/12 07:48:36;;;;;;;3.65;3.45;;;20.00;99.90;;;;;;4934362;29;20243;-47
2021/07/12 07:51:04;;;;;;;3.70;3.40;;;20.20;99.90;;;;;;4934766;29;20699;-50
2021/07/12 07:53:32;;;;;;;3.42;3.13;;;20.40;99.90;;;;;;4934529;29;20222;-47
2021/07/12 07:56:00;;;;;;;2.90;2.70;;;20.40;99.90;;;;;;4934352;29;20264;-49
2021/07/12 07:58:28;;;;;;;4.63;3.15;;;20.40;99.90;;;;;;4934459;29;20303;-50
2021/07/12 08:00:57;;;;;;;3.72;2.95;;;20.50;99.90;;;;;;4934389;29;20219;-50
2021/07/12 08:03:25;;;;;;;3.20;3.00;;;20.60;99.90;;;;;;4934256;29;20212;-50
2021/07/12 08:05:53;;;;;;;4.72;2.90;;;20.70;99.90;;;;;;4933827;29;20299;-50
2021/07/12 08:08:21;;;;;;;2.70;2.47;;;20.90;99.90;;;;;;4934261;29;20286;-50
2021/07/12 08:10:49;;;;;;;2.58;1.90;;;20.90;99.90;;;;;;4934336;29;20291;-53
2021/07/12 08:13:17;;;;;;;1.50;1.40;;;21.00;99.90;;;;;;4934278;29;20678;-45
2021/07/12 08:15:50;;;;;;;2.40;1.88;;;21.00;99.90;;;;;;4934526;29;20299;-48
2021/07/12 08:18:19;;;;;;;1.60;1.50;;;21.00;99.90;;;;;;4934411;29;20212;-46
2021/07/12 08:20:48;;;;;;;2.25;1.85;;;21.10;99.90;;;;;;4934424;29;20251;-47
2021/07/12 08:23:16;;;;;;;3.28;2.33;;;21.10;99.90;;;;;;4934517;29;20212;-50
2021/07/12 08:25:44;;;;;;;2.63;1.60;;;21.00;99.90;;;;;;4934216;29;20716;-53
2021/07/12 08:28:12;;;;;;;1.95;1.60;;;21.10;99.90;;;;;;4934305;29;20323;-47
2021/07/12 08:30:41;;;;;;;1.83;1.73;;;21.10;99.90;;;;;;4934423;29;20212;-50
2021/07/12 08:33:08;;;;;;;1.95;1.85;;;21.20;99.90;;;;;;4934585;29;20271;-50
2021/07/12 08:35:38;;;;;;;1.90;1.80;;;21.20;99.90;;;;;;4936992;29;20236;-46
2021/07/12 08:38:07;;;;;;;3.03;1.88;;;21.30;99.90;;;;;;4937606;29;20302;-49
2021/07/12 08:40:35;;;;;;;2.13;1.77;;;21.20;99.90;;;;;;4937555;29;20307;-51
2021/07/12 08:43:14;;;;;;;1.67;1.58;;;21.20;99.90;;;;;;4937552;29;20215;-49
2021/07/12 08:45:42;;;;;;;2.63;2.42;;;21.20;99.90;;;;;;4937651;29;20377;-48
2021/07/12 08:48:09;;;;;;;2.20;1.73;;;21.30;99.90;;;;;;4937422;29;20628;-46
2021/07/12 08:50:39;;;;;;;1.88;1.70;;;21.40;99.90;;;;;;4937287;29;20248;-47
2021/07/12 08:53:07;;;;;;;2.70;1.80;;;21.50;99.90;;;;;;4937461;29;20655;-47
2021/07/12 08:55:35;;;;;;;3.60;1.58;;;21.50;99.90;;;;;;4937434;29;20323;-49
2021/07/12 08:58:09;;;;;;;2.38;1.52;;;21.50;99.90;;;;;;4937537;29;20311;-49
2021/07/12 09:00:47;;;;;;;1.83;1.42;;;21.50;99.90;;;;;;4939733;29;20311;-49
2021/07/12 09:03:20;;;;;;;2.22;1.30;;;21.60;99.90;;;;;;4937056;29;20251;-48
2021/07/12 09:05:59;;;;;;;1.38;1.27;;;21.60;99.90;;;;;;4937114;29;20255;-50
2021/07/12 09:08:53;;;;;;;1.27;1.08;;;21.70;99.90;;;;;;4937214;29;20583;-51
2021/07/12 09:11:25;;;;;;;2.38;1.45;;;21.70;99.90;;;;;;4937148;29;20412;-48
2021/07/12 09:13:56;;;;;;;1.60;1.50;;;21.70;99.90;;;;;;4937447;29;20311;-49
2021/07/12 09:16:42;;;;;;;1.60;1.40;;;21.70;99.90;;;;;;4936909;29;20271;-53
2021/07/12 09:19:23;;;;;;;1.42;1.33;;;21.80;99.90;;;;;;4936999;29;20713;-49
2021/07/12 09:21:58;;;;;;;1.55;1.45;;;21.90;99.90;;;;;;4937222;29;20298;-51
2021/07/12 09:24:33;;;;;;;2.63;1.73;;;22.00;99.90;;;;;;4937017;29;20303;-52
2021/07/12 09:27:06;;;;;;;2.17;1.17;;;22.10;99.90;;;;;;4936960;29;20212;-48
2021/07/12 09:29:35;;;;;;;2.67;2.47;;;22.10;99.90;;;;;;4936809;29;20735;-50
2021/07/12 09:32:06;;;;;;;1.55;1.45;;;22.20;99.90;;;;;;4936380;29;20219;-49
2021/07/12 09:34:34;;;;;;;2.80;1.83;;;22.30;99.90;;;;;;4936491;29;20216;-49
2021/07/12 09:37:05;;;;;;;2.30;1.40;;;22.40;99.90;;;;;;4936701;29;20246;-52
2021/07/12 09:39:38;;;;;;;3.00;1.50;;;22.50;99.90;;;;;;4937654;29;20282;-51
2021/07/12 09:42:09;;;;;;;4.82;1.70;;;22.60;99.90;;;;;;4936544;29;20324;-52
2021/07/12 09:44:43;;;;;;;2.17;1.27;;;22.60;99.90;;;;;;4936921;29;20239;-54
2021/07/12 09:47:13;;;;;;;1.80;1.70;;;22.70;99.90;;;;;;4936776;29;20695;-51
2021/07/12 09:49:42;;;;;;;1.75;1.65;;;22.70;99.90;;;;;;4936520;29;20306;-51
2021/07/12 09:52:13;;;;;;;4.22;1.83;;;22.80;99.90;;;;;;4936539;29;20308;-49
2021/07/12 09:54:43;;;;;;;1.77;1.67;;;22.90;99.90;;;;;;4936248;29;20280;-53
2021/07/12 09:57:19;;;;;;;2.70;2.42;;;22.80;99.90;;;;;;4940264;29;20295;-49
2021/07/12 09:59:58;;;;;;;2.78;1.73;;;22.90;99.90;;;;;;4937990;29;20216;-52
2021/07/12 10:02:29;;;;;;;2.58;1.85;;;22.90;99.90;;;;;;4935954;29;20215;-48
2021/07/12 10:05:00;;;;;;;2.20;2.00;;;23.00;99.90;;;;;;4935900;29;20299;-52
2021/07/12 10:07:30;;;;;;;2.20;2.00;;;23.10;99.90;;;;;;4936151;29;20218;-52
2021/07/12 10:09:59;;;;;;;2.75;1.77;;;23.20;99.90;;;;;;4935591;29;20246;-51
2021/07/12 10:12:28;;;;;;;2.25;2.05;;;23.30;99.90;;;;;;4935761;29;20239;-51
2021/07/12 10:14:57;;;;;;;2.10;1.90;;;23.40;99.90;;;;;;4935246;29;20211;-53
2021/07/12 10:17:25;;;;;;;2.17;1.98;;;23.40;99.90;;;;;;4935022;29;20228;-53
2021/07/12 10:19:56;;;;;;;1.55;1.45;;;23.50;99.90;;;;;;4935649;29;20230;-47
2021/07/12 10:22:25;;;;;;;2.25;2.08;;;23.50;99.90;;;;;;4935254;29;20261;-47
2021/07/12 10:25:04;;;;;;;1.80;1.70;;;23.50;99.90;;;;;;4935512;29;20243;-48
2021/07/12 10:27:32;;;;;;;1.95;1.80;;;23.60;99.90;;;;;;4935618;29;20214;-50
2021/07/12 10:30:26;;;;;;;2.30;1.75;;;23.70;99.80;;;;;;4935586;29;20208;-48
2021/07/12 10:32:57;;;;;;;1.45;1.35;;;23.80;99.40;;;;;;4935227;29;20282;-48
2021/07/12 10:35:42;;;;;;;1.73;1.63;;;23.80;99.90;;;;;;4935252;29;20212;-48
2021/07/12 10:38:13;;;;;;;1.60;1.50;;;23.90;99.30;;;;;;4935185;29;20275;-47
2021/07/12 10:40:54;;;;;;;1.80;1.67;;;24.00;99.20;;;;;;4935479;29;20582;-50
2021/07/12 10:43:49;;;;;;;1.85;1.67;;;24.00;99.00;;;;;;4935170;29;20306;-50
2021/07/12 10:46:42;;;;;;;1.83;1.67;;;24.10;98.70;;;;;;4933869;29;20243;-51
2021/07/12 10:49:36;;;;;;;1.60;1.50;;;24.20;98.20;;;;;;4935344;29;20221;-47
2021/07/12 10:52:05;;;;;;;1.65;1.55;;;24.20;98.20;;;;;;4935419;29;20212;-49
2021/07/12 10:55:00;;;;;;;1.60;1.50;;;24.20;98.30;;;;;;4935299;29;20212;-48
2021/07/12 10:57:30;;;;;;;1.45;1.35;;;24.30;98.40;;;;;;4934888;29;20707;-48
2021/07/12 11:00:12;;;;;;;1.80;1.70;;;24.30;98.30;;;;;;4935079;29;20208;-49
2021/07/12 11:02:42;;;;;;;2.55;1.90;;;24.40;98.20;;;;;;4935156;29;20226;-48
2021/07/12 11:05:16;;;;;;;2.08;1.75;;;24.40;98.10;;;;;;4934910;29;20263;-51
2021/07/12 11:07:46;;;;;;;1.67;1.58;;;24.40;98.00;;;;;;4934910;29;20230;-50
2021/07/12 11:10:26;;;;;;;1.60;1.50;;;24.50;98.30;;;;;;4935046;29;20298;-51
2021/07/12 11:12:57;;;;;;;3.35;1.73;;;24.70;98.10;;;;;;4934920;29;20241;-52
2021/07/12 11:15:32;;;;;;;2.35;1.50;;;24.70;97.90;;;;;;4935262;29;20296;-51
2021/07/12 11:18:05;;;;;;;1.60;1.50;;;24.80;97.90;;;;;;4934877;29;20327;-47
2021/07/12 11:20:49;;;;;;;1.20;1.10;;;24.90;97.80;;;;;;4934739;29;20220;-49
2021/07/12 11:23:46;;;;;;;1.45;1.25;;;24.90;97.20;;;;;;4934547;29;20239;-48
2021/07/12 11:26:40;;;;;;;1.90;1.40;;;24.90;97.10;;;;;;4935010;29;20212;-52
2021/07/12 11:29:16;;;;;;;3.33;1.75;;;24.90;97.20;;;;;;4934780;29;20575;-51
2021/07/12 11:31:47;;;;;;;1.58;1.48;;;24.90;97.10;;;;;;4934576;29;20239;-49
2021/07/12 11:34:19;;;;;;;2.20;1.20;;;25.00;97.00;;;;;;4934661;29;20291;-49
2021/07/12 11:36:53;;;;;;;4.10;1.30;;;25.00;96.80;;;;;;4934353;29;20684;-52
2021/07/12 11:39:41;;;;;;;1.58;1.48;;;25.10;96.50;;;;;;4934418;29;20691;-49
2021/07/12 11:42:16;;;;;;;2.90;2.20;;;25.20;96.30;;;;;;4934383;29;20211;-48
2021/07/12 11:44:49;;;;;;;1.70;1.60;;;25.20;96.10;;;;;;4934349;29;20295;-52
2021/07/12 11:47:20;;;;;;;1.55;1.42;;;25.30;95.90;;;;;;4934315;29;20299;-50
2021/07/12 11:49:55;;;;;;;1.83;1.70;;;25.30;95.70;;;;;;4934238;29;20254;-50
2021/07/12 11:52:23;;;;;;;3.17;1.70;;;25.40;95.50;;;;;;4934191;29;20259;-51
2021/07/12 11:55:10;;;;;;;1.60;1.50;;;25.40;95.50;;;;;;4934190;29;20262;-52
2021/07/12 11:57:45;;;;;;;1.92;1.80;;;25.40;95.00;;;;;;4934378;29;20234;-47
2021/07/12 12:00:15;;;;;;;1.63;1.45;;;25.50;95.20;;;;;;4934228;29;20240;-47
2021/07/12 12:02:44;;;;;;;2.60;1.50;;;25.50;94.90;;;;;;4934310;29;20216;-48
2021/07/12 12:05:16;;;;;;;4.00;1.90;;;25.50;94.70;;;;;;4934421;29;20244;-53
2021/07/12 12:07:47;;;;;;;2.10;1.90;;;25.50;94.60;;;;;;4934226;29;20208;-49
2021/07/12 12:10:18;;;;;;;2.80;2.08;;;25.50;94.40;;;;;;4937803;29;20239;-47
2021/07/12 12:12:49;;;;;;;7.68;2.20;;;25.50;94.40;;;;;;4938183;29;20253;-51
2021/07/12 12:15:19;;;;;;;1.95;1.85;;;25.50;94.40;;;;;;4938370;29;20252;-51
2021/07/12 12:17:51;;;;;;;2.47;2.15;;;25.60;94.30;;;;;;4937916;29;20250;-48
2021/07/12 12:20:31;;;;;;;2.25;1.55;;;25.70;94.20;;;;;;4938184;29;20664;-50
2021/07/12 12:23:11;;;;;;;2.97;2.10;;;25.80;94.20;;;;;;4937680;29;20632;-49
2021/07/12 12:25:45;;;;;;;3.53;2.42;;;25.80;94.00;;;;;;4937871;29;20227;-49
2021/07/12 12:28:24;;;;;;;1.95;1.75;;;25.80;93.90;;;;;;4937778;29;20260;-50
2021/07/12 12:30:54;;;;;;;2.00;1.80;;;25.90;93.70;;;;;;4937300;29;20692;-48
2021/07/12 12:33:29;;;;;;;2.42;2.20;;;25.90;93.70;;;;;;4937704;29;20212;-48
2021/07/12 12:36:01;;;;;;;2.72;2.00;;;25.90;93.70;;;;;;4937605;29;20311;-51
2021/07/12 12:38:29;;;;;;;1.80;1.70;;;26.00;93.60;;;;;;4937754;29;20271;-50
2021/07/12 12:41:03;;;;;;;3.72;2.22;;;26.00;93.50;;;;;;4938034;29;20244;-49
2021/07/12 12:43:34;;;;;;;2.58;2.38;;;26.10;93.40;;;;;;4937693;29;20639;-47
2021/07/12 12:46:05;;;;;;;1.75;1.65;;;26.10;93.20;;;;;;4937106;29;20702;-48
2021/07/12 12:48:40;;;;;;;2.08;1.63;;;26.20;93.10;;;;;;4937449;29;20688;-50
2021/07/12 12:51:31;;;;;;;2.42;2.20;;;26.20;92.90;;;;;;4937407;29;20211;-49
2021/07/12 12:54:04;;;;;;;2.17;1.73;;;26.30;92.80;;;;;;4937887;29;20211;-47
2021/07/12 12:56:34;;;;;;;2.08;1.52;;;26.40;92.60;;;;;;4937983;29;20215;-52
2021/07/12 12:59:04;;;;;;;4.07;1.60;;;26.40;92.20;;;;;;4937298;29;20350;-51
2021/07/12 13:01:34;;;;;;;3.13;1.85;;;26.50;92.00;;;;;;4936971;29;20735;-52
2021/07/12 13:04:11;;;;;;;2.30;2.10;;;26.50;91.70;;;;;;4937169;29;20307;-51
2021/07/12 13:06:51;;;;;;;2.35;1.90;;;26.60;91.40;;;;;;4936843;29;20212;-50
2021/07/12 13:09:30;;;;;;;2.05;1.63;;;26.60;91.30;;;;;;4936753;29;20330;-51